sensor_id;sensor_type;location;lat;lon;timestamp;pressure;altitude;pressure_sealevel;temperature;humidity
76108;BME280;64834;52.516;10.528;2023-03-17T00:00:19;100746.47;;;4.75;62.23
76108;BME280;64834;52.516;10.528;2023-03-17T00:02:46;100746.38;;;4.73;62.39
76108;BME280;64834;52.516;10.528;2023-03-17T00:05:18;100743.88;;;4.75;62.04
76108;BME280;64834;52.516;10.528;2023-03-17T00:07:45;100744.91;;;4.55;62.98
76108;BME280;64834;52.516;10.528;2023-03-17T00:10:15;100741.53;;;4.56;63.48
76108;BME280;64834;52.516;10.528;2023-03-17T00:12:42;100745.63;;;4.64;62.96
76108;BME280;64834;52.516;10.528;2023-03-17T00:15:08;100743.16;;;4.66;62.56
76108;BME280;64834;52.516;10.528;2023-03-17T00:17:34;100739.13;;;4.69;62.35
76108;BME280;64834;52.516;10.528;2023-03-17T00:20:00;100731.75;;;4.64;62.76
76108;BME280;64834;52.516;10.528;2023-03-17T00:22:25;100739.69;;;4.65;63.29
76108;BME280;64834;52.516;10.528;2023-03-17T00:24:51;100738.22;;;4.69;62.87
76108;BME280;64834;52.516;10.528;2023-03-17T00:27:16;100732.91;;;4.67;62.48
76108;BME280;64834;52.516;10.528;2023-03-17T00:29:42;100725.03;;;4.66;63.04
76108;BME280;64834;52.516;10.528;2023-03-17T00:32:15;100722.28;;;4.64;63.23
76108;BME280;64834;52.516;10.528;2023-03-17T00:34:41;100724.66;;;4.61;63.43
76108;BME280;64834;52.516;10.528;2023-03-17T00:37:09;100725.94;;;4.66;63.14
76108;BME280;64834;52.516;10.528;2023-03-17T00:39:36;100727.13;;;4.59;63.06
76108;BME280;64834;52.516;10.528;2023-03-17T00:42:03;100715.22;;;4.51;63.39
76108;BME280;64834;52.516;10.528;2023-03-17T00:44:28;100714.28;;;4.61;63.10
76108;BME280;64834;52.516;10.528;2023-03-17T00:46:54;100715.97;;;4.60;62.88
76108;BME280;64834;52.516;10.528;2023-03-17T00:49:21;100717.38;;;4.67;63.01
76108;BME280;64834;52.516;10.528;2023-03-17T00:51:48;100704.72;;;4.60;63.43
76108;BME280;64834;52.516;10.528;2023-03-17T00:54:14;100695.25;;;4.60;63.03
76108;BME280;64834;52.516;10.528;2023-03-17T00:56:40;100695.78;;;4.56;63.14
76108;BME280;64834;52.516;10.528;2023-03-17T00:59:26;100700.31;;;4.59;63.32
76108;BME280;64834;52.516;10.528;2023-03-17T01:01:53;100694.66;;;4.53;63.46
76108;BME280;64834;52.516;10.528;2023-03-17T01:04:19;100691.28;;;4.54;63.29
76108;BME280;64834;52.516;10.528;2023-03-17T01:06:45;100700.16;;;4.57;63.12
76108;BME280;64834;52.516;10.528;2023-03-17T01:09:13;100696.19;;;4.51;63.43
76108;BME280;64834;52.516;10.528;2023-03-17T01:11:39;100692.69;;;4.50;63.47
76108;BME280;64834;52.516;10.528;2023-03-17T01:14:04;100690.22;;;4.52;63.53
76108;BME280;64834;52.516;10.528;2023-03-17T01:16:30;100690.09;;;4.50;63.53
76108;BME280;64834;52.516;10.528;2023-03-17T01:18:55;100691.56;;;4.47;63.76
76108;BME280;64834;52.516;10.528;2023-03-17T01:21:20;100686.13;;;4.44;63.99
76108;BME280;64834;52.516;10.528;2023-03-17T01:23:46;100685.50;;;4.46;63.93
76108;BME280;64834;52.516;10.528;2023-03-17T01:26:12;100681.97;;;4.46;63.75
76108;BME280;64834;52.516;10.528;2023-03-17T01:28:37;100685.22;;;4.43;64.05
76108;BME280;64834;52.516;10.528;2023-03-17T01:31:03;100681.44;;;4.50;63.76
76108;BME280;64834;52.516;10.528;2023-03-17T01:33:29;100679.19;;;4.32;64.56
76108;BME280;64834;52.516;10.528;2023-03-17T01:35:54;100672.47;;;4.35;64.31
76108;BME280;64834;52.516;10.528;2023-03-17T01:38:19;100681.66;;;4.31;64.17
76108;BME280;64834;52.516;10.528;2023-03-17T01:40:47;100677.66;;;4.35;64.33
76108;BME280;64834;52.516;10.528;2023-03-17T01:43:27;100676.59;;;4.32;64.27
76108;BME280;64834;52.516;10.528;2023-03-17T01:46:26;100675.59;;;4.30;64.24
76108;BME280;64834;52.516;10.528;2023-03-17T01:49:18;100680.53;;;4.27;64.35
76108;BME280;64834;52.516;10.528;2023-03-17T01:52:08;100672.50;;;4.24;64.83
76108;BME280;64834;52.516;10.528;2023-03-17T01:54:42;100668.41;;;4.16;64.90
76108;BME280;64834;52.516;10.528;2023-03-17T01:57:14;100663.06;;;4.15;65.08
76108;BME280;64834;52.516;10.528;2023-03-17T01:59:48;100659.16;;;4.20;65.05
76108;BME280;64834;52.516;10.528;2023-03-17T02:02:18;100659.31;;;4.21;64.75
76108;BME280;64834;52.516;10.528;2023-03-17T02:04:45;100667.84;;;4.20;65.00
76108;BME280;64834;52.516;10.528;2023-03-17T02:07:10;100672.00;;;4.18;64.89
76108;BME280;64834;52.516;10.528;2023-03-17T02:09:36;100670.31;;;4.19;65.22
76108;BME280;64834;52.516;10.528;2023-03-17T02:12:03;100684.38;;;4.00;65.82
76108;BME280;64834;52.516;10.528;2023-03-17T02:14:31;100678.88;;;4.18;65.14
76108;BME280;64834;52.516;10.528;2023-03-17T02:16:56;100666.44;;;4.14;65.16
76108;BME280;64834;52.516;10.528;2023-03-17T02:19:21;100677.16;;;3.96;65.96
76108;BME280;64834;52.516;10.528;2023-03-17T02:21:53;100685.53;;;4.04;65.90
76108;BME280;64834;52.516;10.528;2023-03-17T02:24:27;100678.38;;;4.12;66.08
76108;BME280;64834;52.516;10.528;2023-03-17T02:26:57;100674.38;;;4.15;65.49
76108;BME280;64834;52.516;10.528;2023-03-17T02:29:24;100673.22;;;4.01;66.30
76108;BME280;64834;52.516;10.528;2023-03-17T02:31:49;100664.16;;;4.06;66.16
76108;BME280;64834;52.516;10.528;2023-03-17T02:34:15;100653.16;;;4.09;66.05
76108;BME280;64834;52.516;10.528;2023-03-17T02:36:41;100645.63;;;4.12;65.87
76108;BME280;64834;52.516;10.528;2023-03-17T02:39:07;100654.16;;;4.11;65.51
76108;BME280;64834;52.516;10.528;2023-03-17T02:41:33;100652.00;;;4.05;65.88
76108;BME280;64834;52.516;10.528;2023-03-17T02:43:59;100654.69;;;4.07;65.91
76108;BME280;64834;52.516;10.528;2023-03-17T02:46:24;100648.88;;;4.10;65.56
76108;BME280;64834;52.516;10.528;2023-03-17T02:48:50;100642.94;;;4.00;65.94
76108;BME280;64834;52.516;10.528;2023-03-17T02:51:16;100643.84;;;4.01;65.98
76108;BME280;64834;52.516;10.528;2023-03-17T02:53:41;100637.13;;;4.03;66.04
76108;BME280;64834;52.516;10.528;2023-03-17T02:56:06;100625.88;;;4.02;65.84
76108;BME280;64834;52.516;10.528;2023-03-17T02:58:32;100626.41;;;3.98;66.48
76108;BME280;64834;52.516;10.528;2023-03-17T03:00:58;100613.69;;;4.01;66.15
76108;BME280;64834;52.516;10.528;2023-03-17T03:03:23;100626.78;;;4.03;65.94
76108;BME280;64834;52.516;10.528;2023-03-17T03:05:48;100631.75;;;3.90;66.66
76108;BME280;64834;52.516;10.528;2023-03-17T03:08:15;100650.91;;;3.82;66.60
76108;BME280;64834;52.516;10.528;2023-03-17T03:10:41;100656.97;;;3.92;66.95
76108;BME280;64834;52.516;10.528;2023-03-17T03:13:06;100662.06;;;3.81;67.17
76108;BME280;64834;52.516;10.528;2023-03-17T03:15:32;100672.00;;;3.76;67.19
76108;BME280;64834;52.516;10.528;2023-03-17T03:17:57;100673.25;;;3.59;67.72
76108;BME280;64834;52.516;10.528;2023-03-17T03:20:22;100680.78;;;3.46;68.15
76108;BME280;64834;52.516;10.528;2023-03-17T03:22:48;100674.50;;;3.64;68.16
76108;BME280;64834;52.516;10.528;2023-03-17T03:25:13;100673.00;;;3.46;68.89
76108;BME280;64834;52.516;10.528;2023-03-17T03:27:38;100672.75;;;3.43;69.50
76108;BME280;64834;52.516;10.528;2023-03-17T03:30:04;100674.03;;;3.38;69.48
76108;BME280;64834;52.516;10.528;2023-03-17T03:32:32;100667.06;;;3.37;69.14
76108;BME280;64834;52.516;10.528;2023-03-17T03:34:57;100675.97;;;3.20;69.61
76108;BME280;64834;52.516;10.528;2023-03-17T03:37:23;100680.50;;;3.12;70.39
76108;BME280;64834;52.516;10.528;2023-03-17T03:39:48;100682.31;;;3.23;70.03
76108;BME280;64834;52.516;10.528;2023-03-17T03:42:13;100686.88;;;3.16;70.88
76108;BME280;64834;52.516;10.528;2023-03-17T03:44:40;100672.66;;;3.21;70.95
76108;BME280;64834;52.516;10.528;2023-03-17T03:47:05;100660.63;;;3.21;70.75
76108;BME280;64834;52.516;10.528;2023-03-17T03:49:31;100665.38;;;3.37;70.33
76108;BME280;64834;52.516;10.528;2023-03-17T03:51:56;100658.78;;;3.41;69.96
76108;BME280;64834;52.516;10.528;2023-03-17T03:54:22;100660.81;;;3.55;69.35
76108;BME280;64834;52.516;10.528;2023-03-17T03:56:47;100652.91;;;3.64;68.81
76108;BME280;64834;52.516;10.528;2023-03-17T03:59:12;100651.22;;;3.64;69.13
76108;BME280;64834;52.516;10.528;2023-03-17T04:01:39;100642.19;;;3.59;68.64
76108;BME280;64834;52.516;10.528;2023-03-17T04:04:05;100639.06;;;3.63;68.75
76108;BME280;64834;52.516;10.528;2023-03-17T04:06:30;100649.44;;;3.53;68.91
76108;BME280;64834;52.516;10.528;2023-03-17T04:08:56;100642.09;;;3.47;69.44
76108;BME280;64834;52.516;10.528;2023-03-17T04:11:21;100635.19;;;3.58;69.07
76108;BME280;64834;52.516;10.528;2023-03-17T04:13:46;100639.88;;;3.52;69.08
76108;BME280;64834;52.516;10.528;2023-03-17T04:16:12;100636.00;;;3.47;69.09
76108;BME280;64834;52.516;10.528;2023-03-17T04:18:37;100631.34;;;3.43;69.44
76108;BME280;64834;52.516;10.528;2023-03-17T04:21:03;100627.25;;;3.35;69.58
76108;BME280;64834;52.516;10.528;2023-03-17T04:23:28;100629.72;;;3.23;70.24
76108;BME280;64834;52.516;10.528;2023-03-17T04:25:55;100622.09;;;3.14;70.81
76108;BME280;64834;52.516;10.528;2023-03-17T04:28:20;100636.94;;;3.17;70.31
76108;BME280;64834;52.516;10.528;2023-03-17T04:30:46;100645.84;;;3.31;70.52
76108;BME280;64834;52.516;10.528;2023-03-17T04:33:11;100624.88;;;3.38;70.06
76108;BME280;64834;52.516;10.528;2023-03-17T04:35:38;100625.28;;;3.32;70.26
76108;BME280;64834;52.516;10.528;2023-03-17T04:38:03;100620.38;;;3.35;70.21
76108;BME280;64834;52.516;10.528;2023-03-17T04:40:28;100618.19;;;3.30;70.60
76108;BME280;64834;52.516;10.528;2023-03-17T04:42:54;100613.41;;;3.14;71.25
76108;BME280;64834;52.516;10.528;2023-03-17T04:45:19;100610.06;;;2.94;71.58
76108;BME280;64834;52.516;10.528;2023-03-17T04:47:45;100598.72;;;3.03;71.93
76108;BME280;64834;52.516;10.528;2023-03-17T04:50:11;100610.34;;;2.97;72.15
76108;BME280;64834;52.516;10.528;2023-03-17T04:52:36;100592.22;;;3.08;72.05
76108;BME280;64834;52.516;10.528;2023-03-17T04:55:04;100581.63;;;3.05;72.01
76108;BME280;64834;52.516;10.528;2023-03-17T04:57:30;100589.78;;;2.99;71.94
76108;BME280;64834;52.516;10.528;2023-03-17T04:59:56;100583.47;;;2.85;72.48
76108;BME280;64834;52.516;10.528;2023-03-17T05:02:22;100584.75;;;2.80;72.82
76108;BME280;64834;52.516;10.528;2023-03-17T05:04:47;100598.31;;;2.67;73.35
76108;BME280;64834;52.516;10.528;2023-03-17T05:07:12;100592.91;;;2.85;72.74
76108;BME280;64834;52.516;10.528;2023-03-17T05:09:38;100599.88;;;2.76;72.76
76108;BME280;64834;52.516;10.528;2023-03-17T05:12:03;100597.94;;;2.53;73.53
76108;BME280;64834;52.516;10.528;2023-03-17T05:14:29;100594.06;;;2.58;73.69
76108;BME280;64834;52.516;10.528;2023-03-17T05:16:54;100592.88;;;2.44;74.09
76108;BME280;64834;52.516;10.528;2023-03-17T05:19:21;100601.16;;;2.40;74.75
76108;BME280;64834;52.516;10.528;2023-03-17T05:21:47;100573.09;;;2.24;74.61
76108;BME280;64834;52.516;10.528;2023-03-17T05:24:14;100600.00;;;2.47;74.95
76108;BME280;64834;52.516;10.528;2023-03-17T05:26:42;100582.56;;;2.54;74.43
76108;BME280;64834;52.516;10.528;2023-03-17T05:29:08;100593.44;;;2.70;74.01
76108;BME280;64834;52.516;10.528;2023-03-17T05:31:34;100591.22;;;2.55;73.89
76108;BME280;64834;52.516;10.528;2023-03-17T05:34:00;100585.53;;;2.49;74.38
76108;BME280;64834;52.516;10.528;2023-03-17T05:36:27;100585.38;;;2.57;74.66
76108;BME280;64834;52.516;10.528;2023-03-17T05:38:52;100581.53;;;2.73;73.97
76108;BME280;64834;52.516;10.528;2023-03-17T05:41:18;100586.69;;;2.73;74.24
76108;BME280;64834;52.516;10.528;2023-03-17T05:43:44;100588.91;;;2.78;73.43
76108;BME280;64834;52.516;10.528;2023-03-17T05:46:09;100599.75;;;2.84;73.56
76108;BME280;64834;52.516;10.528;2023-03-17T05:48:35;100594.31;;;2.91;73.38
76108;BME280;64834;52.516;10.528;2023-03-17T05:51:01;100595.34;;;2.93;73.32
76108;BME280;64834;52.516;10.528;2023-03-17T05:53:26;100592.88;;;2.95;72.89
76108;BME280;64834;52.516;10.528;2023-03-17T05:55:52;100585.53;;;3.10;71.95
76108;BME280;64834;52.516;10.528;2023-03-17T05:58:17;100578.38;;;3.17;71.80
76108;BME280;64834;52.516;10.528;2023-03-17T06:00:43;100584.06;;;3.23;71.99
76108;BME280;64834;52.516;10.528;2023-03-17T06:03:09;100568.03;;;3.28;71.81
76108;BME280;64834;52.516;10.528;2023-03-17T06:05:35;100568.28;;;3.31;71.20
76108;BME280;64834;52.516;10.528;2023-03-17T06:08:00;100572.25;;;3.37;71.52
76108;BME280;64834;52.516;10.528;2023-03-17T06:10:26;100571.66;;;3.30;71.31
76108;BME280;64834;52.516;10.528;2023-03-17T06:12:52;100572.53;;;3.30;71.28
76108;BME280;64834;52.516;10.528;2023-03-17T06:15:18;100560.50;;;3.31;71.62
76108;BME280;64834;52.516;10.528;2023-03-17T06:17:43;100569.56;;;3.36;71.29
76108;BME280;64834;52.516;10.528;2023-03-17T06:20:09;100568.28;;;3.31;71.41
76108;BME280;64834;52.516;10.528;2023-03-17T06:22:35;100553.72;;;3.21;71.70
76108;BME280;64834;52.516;10.528;2023-03-17T06:25:01;100551.34;;;3.24;71.69
76108;BME280;64834;52.516;10.528;2023-03-17T06:27:26;100550.69;;;3.27;71.69
76108;BME280;64834;52.516;10.528;2023-03-17T06:29:52;100553.66;;;3.31;71.91
76108;BME280;64834;52.516;10.528;2023-03-17T06:32:17;100552.34;;;3.36;71.33
76108;BME280;64834;52.516;10.528;2023-03-17T06:34:43;100545.09;;;3.42;71.30
76108;BME280;64834;52.516;10.528;2023-03-17T06:37:09;100546.88;;;3.54;70.66
76108;BME280;64834;52.516;10.528;2023-03-17T06:39:35;100549.09;;;3.49;70.56
76108;BME280;64834;52.516;10.528;2023-03-17T06:42:02;100558.13;;;3.54;70.28
76108;BME280;64834;52.516;10.528;2023-03-17T06:44:27;100555.66;;;3.56;70.21
76108;BME280;64834;52.516;10.528;2023-03-17T06:46:54;100551.50;;;3.58;70.38
76108;BME280;64834;52.516;10.528;2023-03-17T06:49:20;100557.31;;;3.65;69.77
76108;BME280;64834;52.516;10.528;2023-03-17T06:51:46;100550.19;;;3.63;69.46
76108;BME280;64834;52.516;10.528;2023-03-17T06:54:11;100559.22;;;3.68;69.40
76108;BME280;64834;52.516;10.528;2023-03-17T06:56:36;100563.25;;;3.64;69.56
76108;BME280;64834;52.516;10.528;2023-03-17T06:59:02;100556.91;;;3.71;68.93
76108;BME280;64834;52.516;10.528;2023-03-17T07:01:27;100552.19;;;3.77;69.31
76108;BME280;64834;52.516;10.528;2023-03-17T07:03:53;100564.19;;;4.30;67.65
76108;BME280;64834;52.516;10.528;2023-03-17T07:06:18;100554.41;;;4.60;66.65
76108;BME280;64834;52.516;10.528;2023-03-17T07:08:43;100548.72;;;4.87;66.08
76108;BME280;64834;52.516;10.528;2023-03-17T07:11:10;100547.59;;;4.96;65.24
76108;BME280;64834;52.516;10.528;2023-03-17T07:13:35;100552.25;;;5.11;64.74
76108;BME280;64834;52.516;10.528;2023-03-17T07:16:03;100563.09;;;5.41;64.17
76108;BME280;64834;52.516;10.528;2023-03-17T07:18:29;100567.59;;;5.67;62.85
76108;BME280;64834;52.516;10.528;2023-03-17T07:20:57;100565.09;;;5.80;62.31
76108;BME280;64834;52.516;10.528;2023-03-17T07:23:22;100557.31;;;6.04;61.69
76108;BME280;64834;52.516;10.528;2023-03-17T07:25:48;100557.66;;;6.21;60.72
76108;BME280;64834;52.516;10.528;2023-03-17T07:28:14;100561.13;;;6.84;60.04
76108;BME280;64834;52.516;10.528;2023-03-17T07:30:39;100560.94;;;6.81;58.25
76108;BME280;64834;52.516;10.528;2023-03-17T07:33:08;100563.34;;;6.91;58.88
76108;BME280;64834;52.516;10.528;2023-03-17T07:35:33;100555.06;;;7.10;57.96
76108;BME280;64834;52.516;10.528;2023-03-17T07:37:59;100547.69;;;7.29;57.14
76108;BME280;64834;52.516;10.528;2023-03-17T07:40:24;100545.59;;;7.37;56.94
76108;BME280;64834;52.516;10.528;2023-03-17T07:42:50;100546.41;;;7.36;56.48
76108;BME280;64834;52.516;10.528;2023-03-17T07:45:16;100550.91;;;7.51;56.83
76108;BME280;64834;52.516;10.528;2023-03-17T07:47:41;100553.84;;;7.97;55.65
76108;BME280;64834;52.516;10.528;2023-03-17T07:50:07;100556.34;;;8.09;55.25
76108;BME280;64834;52.516;10.528;2023-03-17T07:52:33;100551.53;;;8.02;54.71
76108;BME280;64834;52.516;10.528;2023-03-17T07:54:59;100544.16;;;7.81;55.35
76108;BME280;64834;52.516;10.528;2023-03-17T07:57:24;100545.56;;;7.76;55.11
76108;BME280;64834;52.516;10.528;2023-03-17T07:59:50;100553.47;;;8.32;55.08
76108;BME280;64834;52.516;10.528;2023-03-17T08:02:16;100548.59;;;8.52;54.16
76108;BME280;64834;52.516;10.528;2023-03-17T08:04:43;100543.16;;;8.91;54.28
76108;BME280;64834;52.516;10.528;2023-03-17T08:07:08;100541.66;;;8.95;53.69
76108;BME280;64834;52.516;10.528;2023-03-17T08:09:34;100539.84;;;8.79;53.42
76108;BME280;64834;52.516;10.528;2023-03-17T08:12:02;100535.34;;;8.77;53.29
76108;BME280;64834;52.516;10.528;2023-03-17T08:14:27;100539.84;;;8.79;53.22
76108;BME280;64834;52.516;10.528;2023-03-17T08:16:53;100536.88;;;8.88;53.31
76108;BME280;64834;52.516;10.528;2023-03-17T08:19:18;100528.34;;;9.20;53.74
76108;BME280;64834;52.516;10.528;2023-03-17T08:21:43;100540.38;;;9.48;52.59
76108;BME280;64834;52.516;10.528;2023-03-17T08:24:09;100527.91;;;9.12;52.33
76108;BME280;64834;52.516;10.528;2023-03-17T08:26:34;100519.34;;;9.15;52.87
76108;BME280;64834;52.516;10.528;2023-03-17T08:29:00;100528.34;;;9.20;52.56
76108;BME280;64834;52.516;10.528;2023-03-17T08:31:25;100515.34;;;9.51;52.82
76108;BME280;64834;52.516;10.528;2023-03-17T08:33:52;100516.25;;;9.83;52.68
76108;BME280;64834;52.516;10.528;2023-03-17T08:36:19;100511.47;;;10.07;51.89
76108;BME280;64834;52.516;10.528;2023-03-17T08:38:46;100509.34;;;10.16;51.20
76108;BME280;64834;52.516;10.528;2023-03-17T08:41:14;100505.19;;;10.19;51.78
76108;BME280;64834;52.516;10.528;2023-03-17T08:43:40;100520.75;;;10.18;50.98
76108;BME280;64834;52.516;10.528;2023-03-17T08:46:18;100518.16;;;10.18;50.87
76108;BME280;64834;52.516;10.528;2023-03-17T08:48:44;100521.75;;;10.20;50.08
76108;BME280;64834;52.516;10.528;2023-03-17T08:51:11;100507.59;;;10.31;50.95
76108;BME280;64834;52.516;10.528;2023-03-17T08:53:37;100519.94;;;10.50;50.02
76108;BME280;64834;52.516;10.528;2023-03-17T08:56:03;100525.38;;;10.54;50.36
76108;BME280;64834;52.516;10.528;2023-03-17T08:58:30;100527.03;;;10.69;49.33
76108;BME280;64834;52.516;10.528;2023-03-17T09:01:00;100531.91;;;10.79;48.96
76108;BME280;64834;52.516;10.528;2023-03-17T09:03:26;100527.31;;;10.91;48.57
76108;BME280;64834;52.516;10.528;2023-03-17T09:05:52;100517.47;;;11.03;48.41
76108;BME280;64834;52.516;10.528;2023-03-17T09:08:17;100525.25;;;11.02;48.17
76108;BME280;64834;52.516;10.528;2023-03-17T09:10:43;100526.25;;;11.22;47.29
76108;BME280;64834;52.516;10.528;2023-03-17T09:13:08;100519.28;;;11.40;47.55
76108;BME280;64834;52.516;10.528;2023-03-17T09:15:34;100524.53;;;11.40;46.19
76108;BME280;64834;52.516;10.528;2023-03-17T09:17:59;100515.50;;;11.51;46.63
76108;BME280;64834;52.516;10.528;2023-03-17T09:20:25;100514.34;;;11.46;46.51
76108;BME280;64834;52.516;10.528;2023-03-17T09:22:51;100518.53;;;11.43;46.52
76108;BME280;64834;52.516;10.528;2023-03-17T09:25:17;100509.66;;;11.39;46.52
76108;BME280;64834;52.516;10.528;2023-03-17T09:27:43;100506.63;;;11.49;46.88
76108;BME280;64834;52.516;10.528;2023-03-17T09:30:11;100511.75;;;11.64;45.72
76108;BME280;64834;52.516;10.528;2023-03-17T09:32:41;100503.03;;;11.65;46.39
76108;BME280;64834;52.516;10.528;2023-03-17T09:35:07;100506.84;;;11.72;46.41
76108;BME280;64834;52.516;10.528;2023-03-17T09:37:32;100503.28;;;11.70;46.04
76108;BME280;64834;52.516;10.528;2023-03-17T09:40:01;100504.25;;;11.90;46.25
76108;BME280;64834;52.516;10.528;2023-03-17T09:42:48;100493.41;;;11.82;46.09
76108;BME280;64834;52.516;10.528;2023-03-17T09:45:33;100496.34;;;12.07;45.92
76108;BME280;64834;52.516;10.528;2023-03-17T09:50:42;100492.06;;;12.29;45.65
76108;BME280;64834;52.516;10.528;2023-03-17T09:53:50;100484.75;;;12.41;44.39
76108;BME280;64834;52.516;10.528;2023-03-17T09:56:11;100475.97;;;12.60;44.58
76108;BME280;64834;52.516;10.528;2023-03-17T09:58:39;100471.56;;;12.80;44.62
76108;BME280;64834;52.516;10.528;2023-03-17T10:01:07;100470.47;;;12.75;44.24
76108;BME280;64834;52.516;10.528;2023-03-17T10:03:33;100471.56;;;12.80;44.80
76108;BME280;64834;52.516;10.528;2023-03-17T10:06:56;100467.09;;;12.98;43.10
76108;BME280;64834;52.516;10.528;2023-03-17T10:12:07;100471.59;;;13.42;43.71
76108;BME280;64834;52.516;10.528;2023-03-17T10:14:53;100467.38;;;13.46;42.03
76108;BME280;64834;52.516;10.528;2023-03-17T10:17:25;100467.22;;;13.43;42.34
76108;BME280;64834;52.516;10.528;2023-03-17T10:20:03;100472.72;;;13.49;42.65
76108;BME280;64834;52.516;10.528;2023-03-17T10:22:46;100466.78;;;13.53;42.57
76108;BME280;64834;52.516;10.528;2023-03-17T10:25:22;100469.00;;;13.65;43.00
76108;BME280;64834;52.516;10.528;2023-03-17T10:27:54;100466.13;;;13.81;41.91
76108;BME280;64834;52.516;10.528;2023-03-17T10:30:22;100469.25;;;13.95;41.50
76108;BME280;64834;52.516;10.528;2023-03-17T10:32:49;100463.97;;;13.93;42.04
76108;BME280;64834;52.516;10.528;2023-03-17T10:35:15;100463.78;;;13.89;42.00
76108;BME280;64834;52.516;10.528;2023-03-17T10:37:42;100463.91;;;13.92;41.46
76108;BME280;64834;52.516;10.528;2023-03-17T10:40:19;100460.66;;;13.99;42.52
76108;BME280;64834;52.516;10.528;2023-03-17T10:42:48;100449.44;;;14.27;41.31
76108;BME280;64834;52.516;10.528;2023-03-17T10:45:22;100452.19;;;14.30;41.57
76108;BME280;64834;52.516;10.528;2023-03-17T10:47:54;100456.09;;;14.17;41.62
76108;BME280;64834;52.516;10.528;2023-03-17T10:50:25;100465.25;;;14.27;41.33
76108;BME280;64834;52.516;10.528;2023-03-17T10:52:57;100462.06;;;14.13;41.57
76108;BME280;64834;52.516;10.528;2023-03-17T10:55:34;100465.81;;;13.96;41.92
76108;BME280;64834;52.516;10.528;2023-03-17T10:58:29;100471.41;;;14.27;42.01
76108;BME280;64834;52.516;10.528;2023-03-17T11:01:03;100468.50;;;14.45;42.18
76108;BME280;64834;52.516;10.528;2023-03-17T11:03:31;100459.03;;;14.73;42.53
76108;BME280;64834;52.516;10.528;2023-03-17T11:06:03;100451.16;;;15.00;40.51
76108;BME280;64834;52.516;10.528;2023-03-17T11:08:34;100452.66;;;14.92;39.93
76108;BME280;64834;52.516;10.528;2023-03-17T11:11:05;100455.78;;;14.81;40.64
76108;BME280;64834;52.516;10.528;2023-03-17T11:13:31;100451.78;;;14.67;39.67
76108;BME280;64834;52.516;10.528;2023-03-17T11:16:09;100444.91;;;14.71;38.91
76108;BME280;64834;52.516;10.528;2023-03-17T11:18:41;100442.00;;;14.89;39.09
76108;BME280;64834;52.516;10.528;2023-03-17T11:21:14;100450.00;;;15.17;40.12
76108;BME280;64834;52.516;10.528;2023-03-17T11:23:55;100455.25;;;15.17;38.61
76108;BME280;64834;52.516;10.528;2023-03-17T11:26:46;100463.78;;;15.35;39.74
76108;BME280;64834;52.516;10.528;2023-03-17T11:29:43;100457.88;;;15.44;39.85
76108;BME280;64834;52.516;10.528;2023-03-17T11:35:32;100464.56;;;15.60;39.72
76108;BME280;64834;52.516;10.528;2023-03-17T11:43:43;100435.75;;;15.39;39.85
76108;BME280;64834;52.516;10.528;2023-03-17T11:46:29;100432.19;;;15.37;40.56
76108;BME280;64834;52.516;10.528;2023-03-17T11:49:11;100426.66;;;15.29;40.20
76108;BME280;64834;52.516;10.528;2023-03-17T11:57:04;100417.06;;;15.31;39.88
76108;BME280;64834;52.516;10.528;2023-03-17T11:59:35;100421.47;;;15.32;41.22
76108;BME280;64834;52.516;10.528;2023-03-17T12:02:18;100419.47;;;15.52;42.28
76108;BME280;64834;52.516;10.528;2023-03-17T12:05:11;100416.31;;;15.62;41.62
76108;BME280;64834;52.516;10.528;2023-03-17T12:07:52;100412.47;;;15.81;41.00
76108;BME280;64834;52.516;10.528;2023-03-17T12:10:38;100409.28;;;15.91;41.52
76108;BME280;64834;52.516;10.528;2023-03-17T12:13:13;100401.44;;;15.95;41.21
76108;BME280;64834;52.516;10.528;2023-03-17T12:15:49;100400.00;;;15.76;41.12
76108;BME280;64834;52.516;10.528;2023-03-17T12:18:23;100401.38;;;15.91;40.05
76108;BME280;64834;52.516;10.528;2023-03-17T12:21:19;100413.41;;;15.83;40.35
76108;BME280;64834;52.516;10.528;2023-03-17T12:23:58;100401.78;;;16.07;41.07
76108;BME280;64834;52.516;10.528;2023-03-17T12:26:33;100398.78;;;16.25;41.23
76108;BME280;64834;52.516;10.528;2023-03-17T12:29:07;100398.38;;;16.41;40.29
76108;BME280;64834;52.516;10.528;2023-03-17T12:31:36;100389.53;;;16.40;40.42
76108;BME280;64834;52.516;10.528;2023-03-17T12:36:52;100392.06;;;16.36;40.15
76108;BME280;64834;52.516;10.528;2023-03-17T12:39:23;100376.31;;;16.40;41.11
76108;BME280;64834;52.516;10.528;2023-03-17T12:44:42;100375.41;;;16.40;41.11
76108;BME280;64834;52.516;10.528;2023-03-17T12:53:23;100378.63;;;16.94;40.40
76108;BME280;64834;52.516;10.528;2023-03-17T12:55:51;100374.94;;;16.88;40.15
76108;BME280;64834;52.516;10.528;2023-03-17T12:58:38;100374.19;;;16.92;39.46
76108;BME280;64834;52.516;10.528;2023-03-17T13:01:28;100373.69;;;16.72;39.75
76108;BME280;64834;52.516;10.528;2023-03-17T13:04:01;100371.44;;;16.89;41.26
76108;BME280;64834;52.516;10.528;2023-03-17T13:06:31;100369.94;;;16.98;40.07
76108;BME280;64834;52.516;10.528;2023-03-17T13:12:03;100363.06;;;17.07;38.61
76108;BME280;64834;52.516;10.528;2023-03-17T13:14:45;100352.63;;;17.11;37.13
76108;BME280;64834;52.516;10.528;2023-03-17T13:22:35;100361.16;;;16.99;36.97
76108;BME280;64834;52.516;10.528;2023-03-17T13:25:27;100354.97;;;16.99;37.95
76108;BME280;64834;52.516;10.528;2023-03-17T13:41:30;100348.66;;;16.92;38.11
76108;BME280;64834;52.516;10.528;2023-03-17T13:46:45;100339.97;;;16.98;38.78
76108;BME280;64834;52.516;10.528;2023-03-17T13:51:43;100329.41;;;16.98;38.02
76108;BME280;64834;52.516;10.528;2023-03-17T13:56:51;100334.84;;;17.06;38.45